Race Coverage Navigation

TS # 10 / Tuba City, AZ  2019

 


TS STATS
TS Distance 75.01 
Total Distance 677.88 
Miles To Go 2392.4 
TS Climbing 628 
Total Climbing
TS  Elevation
TS  Net Elevation 978 
Map Filename Open Map 
Directions Filename  
Latitude 36.12 
Longitude -111.23 
Google Map  TimeStation Map 


TS Arrival Data
Arr Ord  #/Name Arrival DT Ascending TS Dst Avg This TS Avg Overall
 1 R404 - Team Viasat - Carlsbad  06/12/2019 22:30 75.01  23.69  21.52 
 2 R403 - Team Viasat-Denver  06/13/2019 0:17 75.01  22.06  20.38 
 3 R401 - San Diego Sports Medicine/Zoca  06/13/2019 3:34 75.01  19.65  18.56 
 4 377 - Christoph Strasser  06/13/2019 4:11 75.01  21.64  19.08 
 5 R400 - HTX Velo Femme  06/13/2019 5:26 75.01  20  17.67 
 6 R200 - EY Legacy Builders 2019  06/13/2019 5:42 75.01  18  17.61 
 7 R205 - Team OB2  06/13/2019 6:40 75.01  20  17.15 
 8 279 - Marko Baloh  06/13/2019 7:52 75.01  17.86  17.28 
 9 R402 - SUWOS  06/13/2019 10:10 75.01  15  15.72 
 10 612 - Markus K. Brandl  06/13/2019 12:46 75.01  12.64  15.24 
 11 609 - Jakob Olsen  06/13/2019 13:23 75.01  17.38  15.05 
 12 617 - SOLO.kiwi (Craig Harper)  06/13/2019 13:36 75.01  13.98  14.94 
 13 288 - Dave Haase  06/13/2019 14:25 75.01  18.07  14.8 
 14 R203 - Mike 'n' Jay Giretto con Amici  06/13/2019 14:36 75.01  18.52  14.29 
 15 529 - Isa Pulver  06/13/2019 14:53 75.01  17.72  14.48 
 16 R201 - IN OUR PRIME  06/13/2019 15:01 75.01  10.09  14.17 
 17 349 - Mark Pattinson  06/13/2019 15:08 75.01  16.07  14.56 
 18 R209 - Workhorses  06/13/2019 15:47 75.01  16.37  13.92 
 19 R111 - Jennifer Orr  06/13/2019 15:48 75.01  15.36  13.97 
 20 329 - Peter Oyler  06/13/2019 16:15 75.01  15.26  14.23 
 21 R124 - Andres Rodriguez  06/13/2019 16:18 75.01  13.89  13.84 
 22 622 - Thomas Odom-Team Kyle Pease Foundation  06/13/2019 16:53 75.01  19.07  13.91 
 23 442 - Joe Barr  06/13/2019 17:12 75.01  17.65  13.92 
 24 623 - Ultra Paka Racing Team (Daniel Polman)  06/13/2019 17:50 75.01  15.52  13.64 
 25 603 - Alan Bradley  06/13/2019 17:54 75.01  14.15  13.69 
 26 620 - Team Jefferson (Allan Jefferson)  06/13/2019 18:37 75.01  13.52  13.45 
 27 615 - Philipp Amhof  06/13/2019 20:25 75.01  11.34  12.99 
 28 R106 - Damaceleste.com (Valentina Tanzi)  06/13/2019 20:34 75.01  16.31  12.73 
 29 604 - Chieko Ozawa  06/13/2019 20:54 75.01  15.15  12.83 
 30 416 - Leah Goldstein  06/13/2019 21:15 75.01  16.61  12.75 
 31 161 - Seana Hogan  06/13/2019 21:30 75.01  10.79  12.7 
 32 568 - Alexandra Meixner  06/13/2019 22:32 75.01  11.72  12.45 
 33 R104 - Team everve Christian (Christian Beichel)  06/13/2019 22:41 75.01  14.8  12.29 
 34 559 - Team Martin RAAM 2019 (Martin Bergmeister)  06/13/2019 22:52 75.01  14.2  12.45 
 35 367 - Daniela Genovesi  06/13/2019 23:05 75.01  16.92  12.33 
 36 R120 - Team Next Step (Peter Pedersen)  06/13/2019 23:24 75.01  14.61  12.1 
 37 411 - Geoff Brunner  06/13/2019 23:35 75.01  17.11  12.32 
 38 539 - Kari Rouvinen  06/14/2019 0:41 75.01  16.13  12.05 
 39 R84 - James Jason Ingels  06/14/2019 1:42 75.01  18.99  11.67 
 40 510 - John C. Tarlton  06/14/2019 2:33 75.01  15.36  11.67 
 41 610 - Kabir Rachure  06/14/2019 2:43 75.01  10.84  11.61 
 42 611 - Marcelo Soares " MIXIRICA "  06/14/2019 2:51 75.01  10.95  11.58 
 43 R103 - Chris Davies  06/14/2019 2:57 75.01  9.2  11.41 
 44 618 - GREGORY ROBINSON  06/14/2019 3:44 75.01  13.85  11.39 
 45 399 - Valerio Zamboni  06/14/2019 4:31 75.01  11.17  11.31 
 46 608 - Elin Starup  06/14/2019 4:58 75.01  11.6  11.12 
 47 R122 - Kirk Gentle  06/14/2019 7:32 75.01  11.39  10.56 
 48 R114 - Krishna Prakash  06/14/2019 8:13 75.01  14.57  10.46 
 49 R119 - Team BlueLine (Martha Hall)  06/14/2019 8:16 75.01  11.11  10.43 
 50 R121 - Ironmae (Rosecler Costa)  06/14/2019 8:38 75.01  7.54  10.37 
 51 R105 - 2nd Chance Racing (Craig Johnson)  06/14/2019 8:40 75.01  9.87  10.4 
 52 R115 - Kym Louie  06/14/2019 8:49 75.01  9.28  10.34 
 53 R112 - John Hoopingarner  06/14/2019 8:56 75.01  14.29  10.35 
 54 621 - Themsen Ultracycling (Jacob Themsen)  06/14/2019 8:57 75.01  5.36  10.47 
 55 R117 - ROGIE (Roger Foote)  06/14/2019 9:32 75.01  12.5  10.25 
 56 424 - Team i RON man Veterans supporting Veterans  06/14/2019 10:09 75.01  10.47  10.33 
 57 424 - Team i RON man Veterans supporting Veterans  06/14/2019 10:10 75.01  10.47  10.33 
 58 527 - TALABARDON (Herve Talabardon)  06/14/2019 10:30 75.01  8.82  10.27 
 59 R110 - James Golding  06/14/2019 11:14 75.01  8.95  10 
 60 605 - Christian Echavarria  06/14/2019 11:17 75.01  6.89  10.13 
 61 607 - Sabine Bird (Team Bean)  06/14/2019 11:21 75.01  7.59  10.07 
 62 R116 - Philippe May  06/14/2019 11:36 75.01  11.69  9.94 
 63 563 - Team Nico Ultracycling - In Fight against Cancer   06/14/2019 13:14 75.01  8.51  9.85 
 64 491 - BOURREAU JACQUES  06/14/2019 21:06 75.01  12.36  8.85 
 65 T411 - team alpha - tischlerei groemmer  06/16/2019 21:45 75.01  22.39  22.3 
 66 T800 - Backstedt Racing Project 14  06/16/2019 21:58 75.01  22.39  22.24 
 67 T401 - Data Techniques powered by Networks Centre  06/16/2019 22:30 75.01  21.33  21.65 
 68 T404 - Gentlemen of speed  06/16/2019 23:41 75.01  18.91  20.89 
 69 T201 - EAT WELL  06/17/2019 0:30 75.01  20.84  20.25 
 70 T407 - Julian Becker   06/17/2019 1:34 75.01  21.53  19.77 
 71 T805 - Team Oceanside  06/17/2019 1:38 75.01  21.13  19.9 
 72 T412 - Team Aspect  06/17/2019 2:00 75.01  23.32  19.57 
 73 T807 - Team ZOE International  06/17/2019 2:26 75.01  21.03  19.46 
 74 T802 - Scorchers  06/17/2019 3:16 75.01  18.83  18.96 
 75 T416 - Team Rotary Raams Polio  06/17/2019 3:28 75.01  20.64  18.81 
 76 T406 - Operation Walk Midwest  06/17/2019 3:34 75.01  20.18  18.67 
 77 T408 - Radeln-fuer-Kinder (Cycling-for-Kids)  06/17/2019 3:36 75.01  21.43  18.67 
 78 T808 - Antonia's Friends 2019  06/17/2019 4:05 75.01  22.06  18.59 
 79 T400 - Cantastic4  06/17/2019 4:16 75.01  17.93  18.27 
 80 T418 - The Opportunists  06/17/2019 4:37 75.01  20.09  18.25 
 81 T804 - Team FSHD Skyland Trail  06/17/2019 4:48 75.01  16.37  18.2 
 82 T403 - EKJ Denmark  06/17/2019 5:54 75.01  18.22  17.52 
 83 T202 - Integra Medical - BAA Racing  06/17/2019 6:00 75.01  15.9  17.4 
 84 T206 - Project Linear Acceleration  06/17/2019 6:33 75.01  17.11  17.18 
 85 T410 - Soap-Aid  06/17/2019 6:39 75.01  17.18  17.24 
 86 T803 - Team EndoPark  06/17/2019 6:47 75.01  18  17.27 
 87 T414 - Brazil Nuts  06/17/2019 6:50 75.01  24.33  17.19 
 88 T405 - High Rollers  06/17/2019 7:37 75.01  15.68  16.79 
 89 T415 - TEAM FIRE VELO 935  06/17/2019 7:52 75.01  17.24  16.76 
 90 T204 - Lucan CRC  06/17/2019 7:57 75.01  18  16.58 
 91 T806 - Team SuperMarrow  06/17/2019 9:11 75.01  17.11  16.3 
 92 T402 - EA/WFP RAAM Team  06/17/2019 9:12 75.01  20.93  16.14 
 93 T413 - TEAM BRASIL - SKIPPER  06/17/2019 9:13 75.01  16.43  16.2 
 94 T417 - Team4RAAM 2019 powered by TGW Living Logistics  06/17/2019 9:52 75.01  16.37  15.98 
 95 T801 - Mind Over Matter  06/17/2019 10:36 75.01  18  15.73 
 96 T207 - Team Life Time  06/17/2019 11:04 75.01  14.33  15.42 
 97 T208 - Team Machine  06/17/2019 12:08 75.01  17.44  15.06 
 98 T205 - Prevent Breast Cancer powered by Endomag  06/17/2019 13:03 75.01  17.38  14.75 
 99 T203 - JPsDuo  06/17/2019 14:19 75.01  16.49  14.34 
 100 T200 - AIR RELAX GoPro TEAM BRASIL  06/17/2019 14:43 75.01  5.94  14.21 
 101 T409 - Serpentine Golden Girls  06/17/2019 15:36 75.01  15.9  14.04 
 102 T210 - Bike Wine Team  06/17/2019 15:54 75.01  16.07  13.91